createdAt,value
2023-03-20T00:02:21.331Z,101381.25
2023-03-20T00:04:49.642Z,101381.75
2023-03-20T00:07:17.990Z,101367.63
2023-03-20T00:09:47.934Z,101371.25
2023-03-20T00:12:18.164Z,101374.91
2023-03-20T00:14:46.498Z,101369.81
2023-03-20T00:17:20.324Z,101371.53
2023-03-20T00:19:49.132Z,101372.25
2023-03-20T00:22:17.338Z,101357.38
2023-03-20T00:24:45.578Z,101361.16
2023-03-20T00:27:16.715Z,101354.81
2023-03-20T00:29:45.948Z,101344.81
2023-03-20T00:32:15.522Z,101343.72
2023-03-20T00:34:43.866Z,101349.69
2023-03-20T00:37:12.733Z,101346.88
2023-03-20T00:39:40.880Z,101353.84
2023-03-20T00:42:21.285Z,101344.91
2023-03-20T00:44:54.179Z,101336.75
2023-03-20T00:47:24.765Z,101338.59
2023-03-20T00:49:54.504Z,101338.84
2023-03-20T00:52:24.422Z,101334.31
2023-03-20T00:54:53.320Z,101334.19
2023-03-20T00:57:28.873Z,101330.53
2023-03-20T01:00:01.574Z,101327.97
2023-03-20T01:02:31.670Z,101333.22
2023-03-20T01:05:00.584Z,101325.91
2023-03-20T01:07:29.179Z,101325.66
2023-03-20T01:09:58.588Z,101317.47
2023-03-20T01:12:31.887Z,101310.66
2023-03-20T01:15:01.655Z,101306.03
2023-03-20T01:17:31.589Z,101303.34
2023-03-20T01:20:00.694Z,101297.13
2023-03-20T01:22:30.062Z,101290.78
2023-03-20T01:24:58.341Z,101288.69
2023-03-20T01:27:26.588Z,101294.94
2023-03-20T01:29:56.113Z,101285.75
2023-03-20T01:32:24.225Z,101289.56
2023-03-20T01:34:53.216Z,101288.28
2023-03-20T01:37:26.524Z,101280.25
2023-03-20T01:39:55.477Z,101285.38
2023-03-20T01:42:23.882Z,101281.72
2023-03-20T01:44:52.048Z,101284.84
2023-03-20T01:47:23.618Z,101281.09
2023-03-20T01:50:28.642Z,101275.56
2023-03-20T01:53:04.817Z,101275.56
2023-03-20T01:55:34.792Z,101268.97
2023-03-20T01:58:08.451Z,101273.34
2023-03-20T02:00:38.257Z,101269.44
2023-03-20T02:03:10.741Z,101265.06
2023-03-20T02:05:40.810Z,101260.69
2023-03-20T02:08:20.569Z,101265.16
2023-03-20T02:10:50.403Z,101258.84
2023-03-20T02:13:19.397Z,101254.56
2023-03-20T02:16:07.479Z,101240.06
2023-03-20T02:18:38.220Z,101247.25
2023-03-20T02:21:58.721Z,101247.13
2023-03-20T02:24:56.630Z,101245.66
2023-03-20T02:27:31.731Z,101232.13
2023-03-20T02:30:34.273Z,101229.19
2023-03-20T02:33:38.762Z,101232.47
2023-03-20T02:36:35.088Z,101226.34
2023-03-20T02:39:27.359Z,101226.34
2023-03-20T02:42:02.022Z,101232.31
2023-03-20T02:44:41.480Z,101229.25
2023-03-20T02:47:15.609Z,101230.34
2023-03-20T02:50:00.186Z,101227.56
2023-03-20T02:52:38.181Z,101228.03
2023-03-20T02:55:16.108Z,101226.31
2023-03-20T02:57:55.205Z,101218.84
2023-03-20T03:00:30.151Z,101221.53
2023-03-20T03:03:07.468Z,101212.50
2023-03-20T03:05:41.656Z,101215.06
2023-03-20T03:08:15.158Z,101219.28
2023-03-20T03:10:48.666Z,101204.78
2023-03-20T03:13:22.264Z,101213.66
2023-03-20T03:15:54.337Z,101205.38
2023-03-20T03:18:26.771Z,101211.44
2023-03-20T03:21:02.032Z,101210.59
2023-03-20T03:23:35.410Z,101214.84
2023-03-20T03:26:09.822Z,101218.97
2023-03-20T03:28:42.106Z,101211.66
2023-03-20T03:31:15.544Z,101217.72
2023-03-20T03:33:47.976Z,101204.16
2023-03-20T03:36:25.595Z,101204.16
2023-03-20T03:39:01.638Z,101206.72
2023-03-20T03:41:36.309Z,101206.59
2023-03-20T03:44:17.732Z,101200.09
2023-03-20T03:46:52.113Z,101199.25
2023-03-20T03:49:25.982Z,101198.13
2023-03-20T03:51:59.931Z,101201.22
2023-03-20T03:54:35.444Z,101192.03
2023-03-20T03:57:07.384Z,101201.22
2023-03-20T03:59:40.275Z,101196.16
2023-03-20T04:02:10.656Z,101194.84
2023-03-20T04:04:43.742Z,101189.38
2023-03-20T04:07:12.466Z,101201.06
2023-03-20T04:09:41.114Z,101188.63
2023-03-20T04:12:31.936Z,101198.53
2023-03-20T04:15:02.894Z,101189.75
2023-03-20T04:17:31.573Z,101190.59
2023-03-20T04:20:00.776Z,101195.00
2023-03-20T04:22:29.289Z,101182.41
2023-03-20T04:24:58.665Z,101186.69
2023-03-20T04:27:28.357Z,101190.31
2023-03-20T04:29:56.987Z,101184.94
2023-03-20T04:32:25.153Z,101187.53
2023-03-20T04:34:53.411Z,101184.56
2023-03-20T04:37:21.729Z,101188.09
2023-03-20T04:39:49.777Z,101187.13
2023-03-20T04:42:18.137Z,101193.22
2023-03-20T04:44:47.770Z,101184.31
2023-03-20T04:47:15.920Z,101181.50
2023-03-20T04:49:45.029Z,101188.59
2023-03-20T04:52:13.067Z,101179.66
2023-03-20T04:54:41.991Z,101180.25
2023-03-20T04:57:10.337Z,101180.97
2023-03-20T04:59:39.581Z,101185.38
2023-03-20T05:02:09.185Z,101184.97
2023-03-20T05:04:37.656Z,101178.84
2023-03-20T05:07:06.060Z,101188.50
2023-03-20T05:09:34.350Z,101179.28
2023-03-20T05:12:03.304Z,101181.88
2023-03-20T05:14:40.839Z,101184.25
2023-03-20T05:17:10.639Z,101180.47
2023-03-20T05:19:39.003Z,101181.19
2023-03-20T05:22:07.460Z,101177.38
2023-03-20T05:24:49.973Z,101170.75
2023-03-20T05:27:18.987Z,101174.97
2023-03-20T05:29:49.166Z,101174.84
2023-03-20T05:32:21.043Z,101172.16
2023-03-20T05:34:50.212Z,101169.47
2023-03-20T05:37:18.887Z,101177.25
2023-03-20T05:39:58.231Z,101159.44
2023-03-20T05:42:27.993Z,101171.03
2023-03-20T05:44:57.284Z,101179.69
2023-03-20T05:47:37.008Z,101178.09
2023-03-20T05:50:09.451Z,101171.63
2023-03-20T05:52:47.059Z,101169.91
2023-03-20T05:55:25.721Z,101173.47
2023-03-20T05:57:54.578Z,101158.44
2023-03-20T06:00:25.443Z,101164.81
2023-03-20T06:02:59.909Z,101161.13
2023-03-20T06:08:31.233Z,101155.06
2023-03-20T06:10:59.516Z,101161.41
2023-03-20T06:13:28.096Z,101154.31
2023-03-20T06:15:57.050Z,101149.94
2023-03-20T06:18:27.530Z,101149.94
2023-03-20T06:21:02.662Z,101160.00
2023-03-20T06:23:33.394Z,101150.78
2023-03-20T06:26:11.549Z,101158.59
2023-03-20T06:28:56.767Z,101148.69
2023-03-20T06:34:33.680Z,101151.66
2023-03-20T06:37:04.109Z,101154.31
2023-03-20T06:39:43.137Z,101159.72
2023-03-20T06:45:02.320Z,101154.31
2023-03-20T06:47:32.080Z,101158.84
2023-03-20T06:50:11.825Z,101154.31
2023-03-20T06:52:42.307Z,101167.66
2023-03-20T06:55:12.466Z,101171.19
2023-03-20T06:57:42.096Z,101160.28
2023-03-20T07:00:12.787Z,101172.75
2023-03-20T07:02:41.933Z,101179.81
2023-03-20T07:05:13.916Z,101181.09
2023-03-20T07:07:44.709Z,101177.41
2023-03-20T07:10:15.547Z,101164.41
2023-03-20T07:27:52.786Z,101165.09
2023-03-20T07:33:19.185Z,101173.75
2023-03-20T07:42:07.929Z,101170.91
2023-03-20T07:44:59.668Z,101177.56
2023-03-20T07:56:24.711Z,101177.84
2023-03-20T08:02:24.671Z,101181.09
2023-03-20T08:04:53.224Z,101186.91
2023-03-20T08:07:24.666Z,101179.41
2023-03-20T08:09:54.868Z,101188.91
2023-03-20T08:12:24.200Z,101184.38
2023-03-20T08:17:38.152Z,101186.06
2023-03-20T08:22:53.410Z,101179.41
2023-03-20T08:25:22.548Z,101187.81
2023-03-20T08:27:53.690Z,101188.25
2023-03-20T08:30:23.604Z,101188.66
2023-03-20T08:32:54.676Z,101179.59
2023-03-20T08:35:32.850Z,101190.19
2023-03-20T08:38:02.103Z,101182.00
2023-03-20T08:40:49.373Z,101181.13
2023-03-20T08:43:20.865Z,101181.69
2023-03-20T08:45:49.403Z,101184.97
2023-03-20T08:48:20.907Z,101185.38
2023-03-20T08:50:49.477Z,101195.72
2023-03-20T08:53:32.851Z,101191.03
2023-03-20T08:56:02.652Z,101190.94
2023-03-20T08:58:55.930Z,101195.16
2023-03-20T09:01:32.609Z,101200.56
2023-03-20T09:04:08.853Z,101199.47
2023-03-20T09:06:39.028Z,101199.16
2023-03-20T09:09:08.067Z,101198.31
2023-03-20T09:11:38.558Z,101197.66
2023-03-20T09:14:06.803Z,101203.91
2023-03-20T09:16:37.480Z,101197.94
2023-03-20T09:19:09.160Z,101195.69
2023-03-20T09:21:40.737Z,101196.94
2023-03-20T09:36:46.572Z,101207.00
2023-03-20T09:39:53.712Z,101196.94
2023-03-20T09:45:51.252Z,101206.16
2023-03-20T09:48:39.833Z,101206.84
2023-03-20T09:58:05.496Z,101195.91
2023-03-20T10:03:55.653Z,101210.66
2023-03-20T10:09:42.697Z,101214.91
2023-03-20T10:15:11.041Z,101214.31
2023-03-20T10:17:53.109Z,101216.31
2023-03-20T10:20:29.998Z,101209.38
2023-03-20T10:25:39.102Z,101205.72
2023-03-20T10:31:05.387Z,101209.09
2023-03-20T10:33:53.041Z,101205.56
2023-03-20T10:39:41.656Z,101211.78
2023-03-20T10:42:19.868Z,101217.75
2023-03-20T10:44:54.726Z,101213.63
2023-03-20T10:50:11.841Z,101209.66
2023-03-20T10:52:42.457Z,101204.97
2023-03-20T10:57:52.533Z,101195.44
2023-03-20T11:11:24.866Z,101177.69
2023-03-20T11:13:54.238Z,101180.81
2023-03-20T12:17:49.447Z,101140.06
2023-03-20T12:20:32.024Z,101146.03
2023-03-20T12:23:08.210Z,101142.19
2023-03-20T12:25:48.073Z,101142.88
2023-03-20T12:28:24.414Z,101139.19
2023-03-20T12:31:07.347Z,101134.41
2023-03-20T12:33:43.914Z,101128.00
2023-03-20T12:36:15.834Z,101118.22
2023-03-20T12:38:45.274Z,101126.16
2023-03-20T12:41:17.001Z,101124.72
2023-03-20T12:44:17.483Z,101123.84
2023-03-20T12:46:57.462Z,101120.91
2023-03-20T12:57:58.847Z,101119.81
2023-03-20T13:00:36.037Z,101120.78
2023-03-20T13:03:20.294Z,101113.56
2023-03-20T13:32:10.184Z,101094.75
2023-03-20T13:35:00.746Z,101095.03
2023-03-20T13:37:40.079Z,101094.88
2023-03-20T13:40:18.474Z,101085.38
2023-03-20T13:42:53.740Z,101079.31
2023-03-20T13:57:03.432Z,101059.13
2023-03-20T13:59:43.889Z,101059.22
2023-03-20T14:02:54.230Z,101059.94
2023-03-20T14:05:26.830Z,101048.88
2023-03-20T14:07:58.565Z,101055.63
2023-03-20T14:10:40.382Z,101048.16
2023-03-20T14:13:17.496Z,101048.16
2023-03-20T14:16:00.212Z,101053.25
2023-03-20T14:18:29.643Z,101052.94
2023-03-20T14:21:00.923Z,101051.56
2023-03-20T14:23:37.915Z,101053.84
2023-03-20T14:38:25.516Z,101046.97
2023-03-20T14:41:02.785Z,101046.44
2023-03-20T14:43:48.841Z,101045.16
2023-03-20T14:46:29.185Z,101041.31
2023-03-20T14:49:08.707Z,101037.06
2023-03-20T14:53:18.812Z,101030.44
2023-03-20T14:59:38.628Z,101022.38
2023-03-20T15:02:08.491Z,101027.66
2023-03-20T15:04:41.131Z,101016.47
2023-03-20T15:07:19.534Z,101015.63
2023-03-20T15:09:53.147Z,101022.97
2023-03-20T15:12:35.781Z,101016.06
2023-03-20T15:21:17.426Z,101007.03
2023-03-20T15:27:14.193Z,101004.00
2023-03-20T15:30:24.188Z,100991.88
2023-03-20T15:33:38.194Z,100989.31
2023-03-20T15:36:43.025Z,100985.09
2023-03-20T15:39:23.376Z,100973.47
2023-03-20T15:45:02.601Z,100981.13
2023-03-20T15:47:47.663Z,100981.13
2023-03-20T15:50:20.043Z,100978.94
2023-03-20T15:52:58.069Z,100972.88
2023-03-20T15:55:32.459Z,100978.66
2023-03-20T15:58:19.932Z,100982.81
2023-03-20T16:01:02.021Z,100979.09
2023-03-20T16:03:40.138Z,100976.56
2023-03-20T17:28:29.206Z,100923.22
2023-03-20T17:31:01.188Z,100934.41
2023-03-20T17:33:31.503Z,100915.41
2023-03-20T17:36:01.754Z,100930.56
2023-03-20T17:56:04.829Z,100918.28
2023-03-20T17:58:34.564Z,100915.28
2023-03-20T18:01:05.221Z,100912.91
2023-03-20T18:03:34.228Z,100919.13
2023-03-20T18:06:09.376Z,100917.28
2023-03-20T18:11:46.319Z,100914.59
2023-03-20T18:17:29.993Z,100893.91
2023-03-20T18:22:50.142Z,100895.59
2023-03-20T18:25:19.404Z,100890.38
2023-03-20T18:27:48.180Z,100891.38
2023-03-20T18:30:25.494Z,100892.38
2023-03-20T18:32:55.304Z,100896.03
2023-03-20T18:35:24.143Z,100889.28
2023-03-20T18:40:47.540Z,100885.19
2023-03-20T18:43:23.772Z,100895.63
2023-03-20T18:45:59.378Z,100886.31
2023-03-20T19:08:09.403Z,100851.91
2023-03-20T19:25:37.900Z,100828.31
2023-03-20T19:28:40.623Z,100819.41
2023-03-20T19:31:34.318Z,100808.66
2023-03-20T19:34:03.146Z,100814.03
2023-03-20T19:36:33.424Z,100803.56
2023-03-20T19:39:09.322Z,100795.81
2023-03-20T19:41:42.854Z,100799.34
2023-03-20T19:44:34.126Z,100796.50
2023-03-20T19:47:02.736Z,100790.88
2023-03-20T19:49:34.379Z,100790.72
2023-03-20T19:52:05.495Z,100788.03
2023-03-20T19:54:34.207Z,100793.41
2023-03-20T19:57:02.950Z,100786.34
2023-03-20T19:59:33.207Z,100776.44
2023-03-20T20:02:03.348Z,100776.44
2023-03-20T20:04:31.952Z,100771.91
2023-03-20T20:07:40.916Z,100772.50
2023-03-20T20:09:48.435Z,100774.91
2023-03-20T20:12:17.637Z,100773.59
2023-03-20T20:14:48.234Z,100773.75
2023-03-20T20:17:24.880Z,100772.34
2023-03-20T20:19:54.478Z,100774.75
2023-03-20T20:22:26.375Z,100780.69
2023-03-20T20:25:04.736Z,100783.81
2023-03-20T20:27:35.000Z,100768.81
2023-03-20T20:30:09.553Z,100777.84
2023-03-20T20:32:44.064Z,100771.78
2023-03-20T20:35:47.486Z,100758.34
2023-03-20T20:38:40.934Z,100756.53
2023-03-20T20:41:01.368Z,100753.13
2023-03-20T20:43:56.915Z,100741.53
2023-03-20T20:46:27.735Z,100746.06
2023-03-20T20:49:13.019Z,100736.31
2023-03-20T20:51:56.208Z,100736.59
2023-03-20T20:54:24.384Z,100742.69
2023-03-20T20:56:52.808Z,100732.91
2023-03-20T20:59:21.508Z,100737.75
2023-03-20T21:01:53.628Z,100729.53
2023-03-20T21:04:22.630Z,100730.13
2023-03-20T21:07:09.257Z,100732.81
2023-03-20T21:12:59.524Z,100719.09
2023-03-20T21:15:28.748Z,100728.13
2023-03-20T21:18:02.323Z,100711.47
2023-03-20T21:20:31.380Z,100718.69
2023-03-20T21:23:08.373Z,100715.16
2023-03-20T21:25:40.754Z,100711.78
2023-03-20T21:28:17.082Z,100716.13
2023-03-20T21:31:12.596Z,100711.19
2023-03-20T21:33:42.168Z,100720.66
2023-03-20T21:36:13.395Z,100712.78
2023-03-20T21:45:08.265Z,100695.94
2023-03-20T21:48:14.008Z,100698.63
2023-03-20T21:59:18.635Z,100695.66
2023-03-20T22:08:05.408Z,100673.03
2023-03-20T22:13:59.692Z,100683.06
2023-03-20T22:23:00.070Z,100653.09
2023-03-20T22:28:22.363Z,100638.25
2023-03-20T22:31:26.811Z,100624.94
2023-03-20T22:37:14.252Z,100641.75
2023-03-20T22:39:50.848Z,100639.75
2023-03-20T22:45:00.410Z,100645.00
2023-03-20T22:47:39.056Z,100642.44
2023-03-20T22:50:08.360Z,100641.31
2023-03-20T22:52:48.771Z,100624.03
2023-03-20T22:55:25.980Z,100628.56
2023-03-20T22:58:06.413Z,100633.81
2023-03-20T23:00:46.736Z,100627.03
2023-03-20T23:09:19.065Z,100622.09
2023-03-20T23:11:48.261Z,100623.22
2023-03-20T23:14:22.262Z,100607.13
2023-03-20T23:16:51.403Z,100604.44
2023-03-20T23:19:19.680Z,100605.44
2023-03-20T23:21:47.965Z,100603.06
2023-03-20T23:24:18.840Z,100614.50
2023-03-20T23:26:48.825Z,100596.69
2023-03-20T23:29:18.987Z,100593.00
2023-03-20T23:31:49.089Z,100594.00
2023-03-20T23:34:18.294Z,100592.41
2023-03-20T23:45:52.191Z,100572.94
2023-03-20T23:48:23.215Z,100561.59
2023-03-20T23:53:37.193Z,100566.09
2023-03-20T23:56:06.379Z,100559.16
2023-03-20T23:58:37.555Z,100552.50
